createdAt,value
2023-01-17T00:01:54.443Z,4.90
2023-01-17T00:04:40.085Z,4.90
2023-01-17T00:07:29.133Z,4.90
2023-01-17T00:09:57.866Z,4.90
2023-01-17T00:12:29.955Z,4.90
2023-01-17T00:14:59.674Z,4.80
2023-01-17T00:17:29.985Z,4.90
2023-01-17T00:20:15.892Z,4.90
2023-01-17T00:23:02.518Z,4.80
2023-01-17T00:25:51.121Z,4.70
2023-01-17T00:28:19.973Z,4.70
2023-01-17T00:30:47.338Z,4.60
2023-01-17T00:33:14.468Z,4.60
2023-01-17T00:35:41.661Z,4.60
2023-01-17T00:38:10.225Z,4.60
2023-01-17T00:40:38.693Z,4.70
2023-01-17T00:43:25.395Z,4.80
2023-01-17T00:46:13.641Z,4.70
2023-01-17T00:49:00.239Z,4.70
2023-01-17T00:51:46.659Z,4.70
2023-01-17T00:54:33.066Z,4.60
2023-01-17T00:57:19.462Z,4.60
2023-01-17T01:00:05.424Z,4.70
2023-01-17T01:02:53.393Z,4.60
2023-01-17T01:05:39.678Z,4.60
2023-01-17T01:08:35.572Z,4.60
2023-01-17T01:11:24.718Z,4.60
2023-01-17T01:14:10.370Z,4.50
2023-01-17T01:16:56.209Z,4.40
2023-01-17T01:19:43.312Z,4.50
2023-01-17T01:22:28.990Z,4.50
2023-01-17T01:25:14.749Z,4.60
2023-01-17T01:28:00.324Z,4.60
2023-01-17T01:30:46.179Z,4.60
2023-01-17T01:33:21.145Z,4.50
2023-01-17T01:35:52.508Z,4.50
2023-01-17T01:38:22.715Z,4.50
2023-01-17T01:40:53.389Z,4.40
2023-01-17T01:43:40.168Z,4.40
2023-01-17T01:46:09.089Z,4.60
2023-01-17T01:48:41.285Z,4.50
2023-01-17T01:51:14.639Z,4.40
2023-01-17T01:53:47.909Z,4.40
2023-01-17T01:56:17.525Z,4.50
2023-01-17T01:58:49.947Z,4.40
2023-01-17T02:01:19.452Z,4.40
2023-01-17T02:03:48.791Z,4.40
2023-01-17T02:06:30.067Z,4.50
2023-01-17T02:09:01.167Z,4.40
2023-01-17T02:11:29.533Z,4.50
2023-01-17T02:13:57.797Z,4.40
2023-01-17T02:16:46.432Z,4.50
2023-01-17T02:19:40.859Z,4.40
2023-01-17T02:22:31.245Z,4.50
2023-01-17T02:25:24.717Z,4.40
2023-01-17T02:28:10.665Z,4.40
2023-01-17T02:30:42.051Z,4.30
2023-01-17T02:33:28.584Z,4.30
2023-01-17T02:36:06.642Z,4.30
2023-01-17T02:38:45.022Z,4.30
2023-01-17T02:41:18.778Z,4.30
2023-01-17T02:43:49.445Z,4.20
2023-01-17T02:46:19.328Z,4.10
2023-01-17T02:48:48.424Z,4.00
2023-01-17T02:51:47.825Z,4.00
2023-01-17T02:54:47.381Z,3.90
2023-01-17T02:57:43.853Z,3.80
2023-01-17T03:00:22.618Z,3.70
2023-01-17T03:03:03.200Z,3.40
2023-01-17T03:05:37.798Z,3.40
2023-01-17T03:08:07.564Z,3.30
2023-01-17T03:10:37.275Z,3.30
2023-01-17T03:13:05.694Z,3.30
2023-01-17T03:15:34.173Z,3.30
2023-01-17T03:18:08.290Z,3.20
2023-01-17T03:20:36.509Z,3.20
2023-01-17T03:23:04.934Z,3.20
2023-01-17T03:25:33.453Z,3.20
2023-01-17T03:28:01.830Z,3.10
2023-01-17T03:30:30.074Z,3.20
2023-01-17T03:32:58.408Z,3.20
2023-01-17T03:35:28.499Z,3.20
2023-01-17T03:37:57.075Z,3.10
2023-01-17T03:40:29.799Z,3.00
2023-01-17T03:42:57.983Z,3.00
2023-01-17T03:45:26.229Z,2.90
2023-01-17T03:47:56.812Z,2.80
2023-01-17T03:50:25.218Z,2.70
2023-01-17T03:52:54.781Z,2.50
2023-01-17T03:55:23.102Z,2.50
2023-01-17T03:57:51.311Z,2.50
2023-01-17T04:00:21.041Z,2.50
2023-01-17T04:02:49.524Z,2.30
2023-01-17T04:05:18.159Z,2.30
2023-01-17T04:07:46.585Z,2.40
2023-01-17T04:10:17.238Z,2.40
2023-01-17T04:12:46.016Z,2.50
2023-01-17T04:15:14.279Z,2.50
2023-01-17T04:17:43.359Z,2.50
2023-01-17T04:20:17.403Z,2.60
2023-01-17T04:22:45.751Z,2.50
2023-01-17T04:25:15.448Z,2.50
2023-01-17T04:27:43.734Z,2.60
2023-01-17T04:30:13.297Z,2.50
2023-01-17T04:32:41.523Z,2.60
2023-01-17T04:35:10.576Z,2.50
2023-01-17T04:37:39.138Z,2.50
2023-01-17T04:40:08.462Z,2.50
2023-01-17T04:42:38.153Z,2.50
2023-01-17T04:45:07.776Z,2.60
2023-01-17T04:47:36.116Z,2.50
2023-01-17T04:50:04.599Z,2.60
2023-01-17T04:52:32.864Z,2.60
2023-01-17T04:55:01.172Z,2.60
2023-01-17T04:57:29.405Z,2.60
2023-01-17T04:59:59.161Z,2.70
2023-01-17T05:02:27.573Z,2.80
2023-01-17T05:04:55.883Z,2.90
2023-01-17T05:07:24.117Z,2.80
2023-01-17T05:09:52.329Z,2.90
2023-01-17T05:12:20.541Z,2.90
2023-01-17T05:14:48.812Z,2.90
2023-01-17T05:17:18.263Z,2.90
2023-01-17T05:19:46.903Z,2.90
2023-01-17T05:22:15.986Z,2.90
2023-01-17T05:24:45.019Z,2.90
2023-01-17T05:27:14.789Z,2.90
2023-01-17T05:29:43.192Z,3.00
2023-01-17T05:32:11.535Z,3.00
2023-01-17T05:34:41.151Z,3.10
2023-01-17T05:37:09.564Z,3.10
2023-01-17T05:39:37.735Z,3.10
2023-01-17T05:42:06.198Z,3.10
2023-01-17T05:44:34.404Z,3.10
2023-01-17T05:47:02.614Z,3.00
2023-01-17T05:49:30.825Z,3.10
2023-01-17T05:52:00.383Z,3.20
2023-01-17T05:54:30.045Z,3.20
2023-01-17T05:56:58.312Z,3.20
2023-01-17T05:59:36.479Z,3.30
2023-01-17T06:02:06.345Z,3.20
2023-01-17T06:04:35.023Z,3.20
2023-01-17T06:07:05.419Z,3.20
2023-01-17T06:09:33.608Z,3.10
2023-01-17T06:12:02.973Z,3.10
2023-01-17T06:14:31.229Z,3.10
2023-01-17T06:16:59.477Z,3.10
2023-01-17T06:19:27.741Z,3.10
2023-01-17T06:21:56.089Z,3.20
2023-01-17T06:24:25.762Z,3.20
2023-01-17T06:26:54.070Z,3.20
2023-01-17T06:29:22.267Z,3.10
2023-01-17T06:31:50.623Z,3.00
2023-01-17T06:34:19.000Z,2.90
2023-01-17T06:36:47.343Z,3.00
2023-01-17T06:39:15.592Z,3.00
2023-01-17T06:41:45.208Z,2.80
2023-01-17T06:44:13.459Z,2.90
2023-01-17T06:46:41.918Z,2.80
2023-01-17T06:49:10.329Z,2.80
2023-01-17T06:51:38.591Z,2.80
2023-01-17T06:54:07.206Z,2.80
2023-01-17T06:56:35.554Z,2.90
2023-01-17T06:59:05.354Z,2.90
2023-01-17T07:01:33.884Z,2.90
2023-01-17T07:04:02.275Z,2.90
2023-01-17T07:06:30.485Z,3.00
2023-01-17T07:08:59.093Z,3.00
2023-01-17T07:11:27.696Z,3.00
2023-01-17T07:13:55.825Z,3.00
2023-01-17T07:16:25.692Z,3.00
2023-01-17T07:18:54.858Z,3.00
2023-01-17T07:21:23.187Z,3.00
2023-01-17T07:23:51.412Z,3.00
2023-01-17T07:26:19.735Z,2.90
2023-01-17T07:28:47.907Z,3.00
2023-01-17T07:31:16.155Z,2.90
2023-01-17T07:33:45.957Z,2.90
2023-01-17T07:36:14.251Z,3.00
2023-01-17T07:38:44.181Z,3.00
2023-01-17T07:41:12.347Z,2.90
2023-01-17T07:43:41.671Z,3.00
2023-01-17T07:46:09.885Z,2.90
2023-01-17T07:48:38.130Z,3.00
2023-01-17T07:51:08.176Z,2.90
2023-01-17T07:53:37.149Z,2.80
2023-01-17T07:56:07.668Z,3.00
2023-01-17T07:58:36.436Z,2.90
2023-01-17T08:01:06.294Z,2.90
2023-01-17T08:03:39.780Z,2.90
2023-01-17T08:06:18.253Z,3.00
2023-01-17T08:08:46.534Z,3.00
2023-01-17T08:11:15.141Z,3.00
2023-01-17T08:13:43.430Z,3.10
2023-01-17T08:16:12.070Z,3.10
2023-01-17T08:18:40.694Z,3.10
2023-01-17T08:21:16.728Z,3.20
2023-01-17T08:23:47.972Z,3.10
2023-01-17T08:26:21.356Z,3.10
2023-01-17T08:28:50.736Z,3.20
2023-01-17T08:31:19.885Z,3.10
2023-01-17T08:33:48.184Z,3.20
2023-01-17T08:36:18.119Z,3.10
2023-01-17T08:38:46.386Z,3.10
2023-01-17T08:41:14.796Z,3.20
2023-01-17T08:43:43.001Z,3.20
2023-01-17T08:46:11.159Z,3.20
2023-01-17T08:48:39.327Z,3.30
2023-01-17T08:51:07.746Z,3.30
2023-01-17T08:53:37.377Z,3.40
2023-01-17T08:56:06.903Z,3.40
2023-01-17T08:58:35.897Z,3.50
2023-01-17T09:01:05.368Z,3.50
2023-01-17T09:03:34.931Z,3.50
2023-01-17T09:06:05.266Z,3.60
2023-01-17T09:08:34.502Z,3.80
2023-01-17T09:11:06.719Z,3.70
2023-01-17T09:13:35.012Z,3.70
2023-01-17T09:16:04.434Z,3.70
2023-01-17T09:18:33.919Z,3.60
2023-01-17T09:21:11.344Z,3.60
2023-01-17T09:23:39.746Z,3.50
2023-01-17T09:26:15.494Z,3.50
2023-01-17T09:28:43.695Z,3.50
2023-01-17T09:31:11.950Z,3.60
2023-01-17T09:33:41.656Z,3.60
2023-01-17T09:36:10.414Z,3.70
2023-01-17T09:38:40.076Z,3.70
2023-01-17T09:41:23.001Z,3.70
2023-01-17T09:43:56.651Z,3.70
2023-01-17T09:46:29.118Z,3.60
2023-01-17T09:49:04.358Z,3.70
2023-01-17T09:51:32.907Z,3.70
2023-01-17T09:54:02.477Z,3.70
2023-01-17T09:56:36.414Z,3.80
2023-01-17T09:59:20.949Z,3.80
2023-01-17T10:01:58.677Z,3.90
2023-01-17T10:04:44.706Z,3.90
2023-01-17T10:07:25.813Z,4.00
2023-01-17T10:10:11.214Z,4.10
2023-01-17T10:12:49.139Z,4.20
2023-01-17T10:15:46.407Z,4.20
2023-01-17T10:18:32.612Z,4.20
2023-01-17T10:21:05.752Z,4.20
2023-01-17T10:23:46.378Z,4.20
2023-01-17T10:26:19.568Z,4.10
2023-01-17T10:28:51.259Z,4.10
2023-01-17T10:31:24.875Z,4.20
2023-01-17T10:33:54.981Z,4.10
2023-01-17T10:36:25.839Z,4.00
2023-01-17T10:38:56.831Z,3.90
2023-01-17T10:41:30.264Z,3.90
2023-01-17T10:44:13.208Z,4.10
2023-01-17T10:46:46.250Z,4.10
2023-01-17T10:49:18.367Z,4.10
2023-01-17T10:52:13.479Z,4.10
2023-01-17T10:54:54.805Z,4.20
2023-01-17T10:57:25.078Z,4.10
2023-01-17T10:59:59.308Z,4.20
2023-01-17T11:02:31.284Z,4.10
2023-01-17T11:05:05.649Z,4.30
2023-01-17T11:07:33.999Z,4.40
2023-01-17T11:10:02.233Z,4.40
2023-01-17T11:12:33.929Z,4.40
2023-01-17T11:15:07.523Z,4.50
2023-01-17T11:17:37.991Z,4.30
2023-01-17T11:20:23.552Z,4.30
2023-01-17T11:23:05.849Z,4.30
2023-01-17T11:25:35.228Z,4.40
2023-01-17T11:28:07.315Z,4.30
2023-01-17T11:30:38.032Z,4.30
2023-01-17T11:33:22.143Z,4.40
2023-01-17T11:35:50.471Z,4.50
2023-01-17T11:38:21.385Z,4.50
2023-01-17T11:40:50.994Z,4.60
2023-01-17T11:43:23.038Z,4.50
2023-01-17T11:46:14.502Z,4.40
2023-01-17T11:48:43.000Z,4.60
2023-01-17T11:51:22.297Z,4.60
2023-01-17T11:53:50.837Z,4.60
2023-01-17T11:56:23.530Z,4.50
2023-01-17T11:58:52.552Z,4.40
2023-01-17T12:01:34.066Z,4.60
2023-01-17T12:04:23.076Z,4.70
2023-01-17T12:07:04.813Z,4.70
2023-01-17T12:09:40.035Z,4.80
2023-01-17T12:12:35.427Z,4.80
2023-01-17T12:15:18.475Z,4.80
2023-01-17T12:18:11.930Z,4.90
2023-01-17T12:20:47.004Z,4.90
2023-01-17T12:23:40.598Z,4.90
2023-01-17T12:26:23.921Z,4.80
2023-01-17T12:29:34.328Z,4.90
2023-01-17T12:32:24.834Z,4.90
2023-01-17T12:34:58.389Z,5.00
2023-01-17T12:37:34.571Z,5.00
2023-01-17T12:40:09.307Z,5.20
2023-01-17T12:42:43.337Z,5.40
2023-01-17T12:45:16.194Z,5.40
2023-01-17T12:47:47.691Z,5.30
2023-01-17T12:50:26.001Z,5.10
2023-01-17T12:53:00.736Z,5.20
2023-01-17T12:55:38.491Z,5.20
2023-01-17T12:58:13.818Z,5.10
2023-01-17T13:00:52.451Z,5.10
2023-01-17T13:03:28.106Z,5.00
2023-01-17T13:05:58.993Z,5.10
2023-01-17T13:08:35.436Z,5.20
2023-01-17T13:11:08.225Z,5.30
2023-01-17T13:13:36.773Z,5.40
2023-01-17T13:16:11.688Z,5.50
2023-01-17T13:18:43.992Z,5.60
2023-01-17T13:21:42.124Z,5.70
2023-01-17T13:24:22.697Z,5.60
2023-01-17T13:27:28.003Z,5.70
2023-01-17T13:30:08.670Z,5.60
2023-01-17T13:32:55.644Z,5.70
2023-01-17T13:35:39.948Z,5.60
2023-01-17T13:38:25.332Z,5.70
2023-01-17T13:40:58.433Z,5.70
2023-01-17T13:43:31.414Z,5.60
2023-01-17T13:46:03.331Z,5.60
2023-01-17T13:48:34.243Z,5.70
2023-01-17T13:51:04.338Z,5.60
2023-01-17T13:54:01.041Z,5.50
2023-01-17T13:56:36.213Z,5.50
2023-01-17T13:59:39.299Z,5.50
2023-01-17T14:02:36.191Z,5.50
2023-01-17T14:05:11.794Z,5.50
2023-01-17T14:07:47.492Z,5.40
2023-01-17T14:10:31.521Z,5.40
2023-01-17T14:13:00.476Z,5.30
2023-01-17T14:15:32.750Z,5.40
2023-01-17T14:18:03.101Z,5.30
2023-01-17T14:20:51.682Z,5.40
2023-01-17T14:23:41.608Z,5.50
2023-01-17T14:26:37.721Z,5.60
2023-01-17T14:29:39.440Z,5.50
2023-01-17T14:32:12.366Z,5.50
2023-01-17T14:34:41.031Z,5.60
2023-01-17T14:37:25.506Z,5.60
2023-01-17T14:39:54.207Z,5.50
2023-01-17T14:42:27.270Z,5.40
2023-01-17T14:45:02.955Z,5.30
2023-01-17T14:47:36.794Z,5.20
2023-01-17T14:50:14.271Z,5.20
2023-01-17T14:52:42.755Z,5.20
2023-01-17T14:55:17.172Z,5.20
2023-01-17T14:57:56.029Z,5.10
2023-01-17T15:00:29.089Z,5.10
2023-01-17T15:03:00.100Z,5.10
2023-01-17T15:05:31.302Z,5.00
2023-01-17T15:08:00.223Z,5.00
2023-01-17T15:10:32.439Z,4.90
2023-01-17T15:13:10.091Z,4.80
2023-01-17T15:15:40.711Z,4.80
2023-01-17T15:18:19.363Z,4.70
2023-01-17T15:20:54.591Z,4.60
2023-01-17T15:23:24.456Z,4.50
2023-01-17T15:25:54.617Z,4.40
2023-01-17T15:28:24.800Z,4.30
2023-01-17T15:31:14.675Z,4.20
2023-01-17T15:33:46.649Z,4.00
2023-01-17T15:36:27.029Z,4.00
2023-01-17T15:39:00.172Z,4.00
2023-01-17T15:41:32.143Z,3.90
2023-01-17T15:44:03.016Z,3.90
2023-01-17T15:46:34.060Z,3.80
2023-01-17T15:49:17.621Z,3.70
2023-01-17T15:51:52.290Z,3.60
2023-01-17T15:54:50.605Z,3.50
2023-01-17T15:57:24.014Z,3.40
2023-01-17T16:00:07.045Z,3.30
2023-01-17T16:02:43.572Z,3.30
2023-01-17T16:05:38.653Z,3.20
2023-01-17T16:08:28.841Z,3.00
2023-01-17T16:11:02.036Z,3.00
2023-01-17T16:13:32.105Z,2.90
2023-01-17T16:16:20.541Z,2.90
2023-01-17T16:18:49.886Z,2.90
2023-01-17T16:21:24.993Z,2.90
2023-01-17T16:23:54.036Z,2.90
2023-01-17T16:26:22.507Z,2.90
2023-01-17T16:28:51.036Z,2.80
2023-01-17T16:31:20.867Z,2.80
2023-01-17T16:33:50.941Z,2.70
2023-01-17T16:36:20.895Z,2.70
2023-01-17T16:38:51.214Z,2.80
2023-01-17T16:41:19.788Z,2.70
2023-01-17T16:43:57.345Z,2.70
2023-01-17T16:46:27.331Z,2.70
2023-01-17T16:48:55.761Z,2.70
2023-01-17T16:51:24.024Z,2.80
2023-01-17T16:53:52.302Z,2.70
2023-01-17T16:56:21.344Z,2.60
2023-01-17T16:58:49.541Z,2.50
2023-01-17T17:01:21.290Z,2.40
2023-01-17T17:03:51.289Z,2.40
2023-01-17T17:06:19.843Z,2.40
2023-01-17T17:08:48.612Z,2.30
2023-01-17T17:11:18.977Z,2.20
2023-01-17T17:13:49.009Z,2.20
2023-01-17T17:16:19.503Z,2.10
2023-01-17T17:18:55.027Z,2.10
2023-01-17T17:21:23.671Z,2.10
2023-01-17T17:23:56.707Z,2.00
2023-01-17T17:26:26.828Z,2.00
2023-01-17T17:28:55.625Z,2.00
2023-01-17T17:31:24.264Z,1.90
2023-01-17T17:33:54.124Z,1.90
2023-01-17T17:36:23.269Z,1.90
2023-01-17T17:38:54.533Z,1.80
2023-01-17T17:41:24.530Z,1.90
2023-01-17T17:43:53.210Z,1.80
2023-01-17T17:46:22.778Z,1.80
2023-01-17T17:48:51.506Z,1.60
2023-01-17T17:51:26.341Z,1.70
2023-01-17T17:53:55.287Z,1.60
2023-01-17T17:56:24.488Z,1.50
2023-01-17T17:58:52.745Z,1.50
2023-01-17T18:01:22.856Z,1.40
2023-01-17T18:03:51.679Z,1.40
2023-01-17T18:06:20.670Z,1.30
2023-01-17T18:08:52.001Z,1.30
2023-01-17T18:11:26.128Z,1.30
2023-01-17T18:13:56.249Z,1.20
2023-01-17T18:16:27.274Z,1.20
2023-01-17T18:18:57.407Z,1.20
2023-01-17T18:21:28.398Z,1.10
2023-01-17T18:23:59.866Z,1.20
2023-01-17T18:26:30.564Z,1.20
2023-01-17T18:29:00.358Z,1.20
2023-01-17T18:31:30.290Z,1.20
2023-01-17T18:34:00.131Z,1.10
2023-01-17T18:36:29.246Z,1.10
2023-01-17T18:38:59.352Z,1.00
2023-01-17T18:41:29.172Z,1.00
2023-01-17T18:43:58.115Z,1.00
2023-01-17T18:46:27.475Z,1.10
2023-01-17T18:48:58.112Z,1.20
2023-01-17T18:51:26.978Z,1.20
2023-01-17T18:53:55.221Z,1.10
2023-01-17T18:56:24.812Z,1.10
2023-01-17T18:58:53.246Z,1.00
2023-01-17T19:01:23.405Z,1.00
2023-01-17T19:03:53.884Z,1.10
2023-01-17T19:06:24.770Z,1.00
2023-01-17T19:08:53.492Z,0.90
2023-01-17T19:11:24.365Z,0.90
2023-01-17T19:13:53.520Z,0.90
2023-01-17T19:16:25.467Z,0.90
2023-01-17T19:18:54.114Z,0.90
2023-01-17T19:21:23.912Z,0.80
2023-01-17T19:23:52.406Z,0.80
2023-01-17T19:26:22.867Z,0.90
2023-01-17T19:28:52.818Z,0.90
2023-01-17T19:31:23.252Z,0.80
2023-01-17T19:33:53.671Z,0.80
2023-01-17T19:36:24.098Z,0.80
2023-01-17T19:39:03.901Z,0.90
2023-01-17T19:41:33.946Z,0.70
2023-01-17T19:44:05.475Z,0.70
2023-01-17T19:46:34.311Z,0.70
2023-01-17T19:49:04.370Z,0.60
2023-01-17T19:51:32.619Z,0.60
2023-01-17T19:54:02.985Z,0.50
2023-01-17T19:56:31.636Z,0.50
2023-01-17T19:59:01.485Z,0.50
2023-01-17T20:01:33.467Z,0.40
2023-01-17T20:04:04.128Z,0.40
2023-01-17T20:06:34.528Z,0.30
2023-01-17T20:09:04.145Z,0.30
2023-01-17T20:11:32.484Z,0.30
2023-01-17T20:14:01.123Z,0.30
2023-01-17T20:16:35.889Z,0.30
2023-01-17T20:19:04.087Z,0.30
2023-01-17T20:21:33.137Z,0.30
2023-01-17T20:24:04.411Z,0.40
2023-01-17T20:26:35.872Z,0.30
2023-01-17T20:29:07.324Z,0.30
2023-01-17T20:31:38.513Z,0.20
2023-01-17T20:34:08.105Z,0.20
2023-01-17T20:36:37.370Z,0.20
2023-01-17T20:39:06.731Z,0.20
2023-01-17T20:41:36.750Z,0.20
2023-01-17T20:44:06.949Z,0.20
2023-01-17T20:46:41.051Z,0.10
2023-01-17T20:49:14.769Z,0.10
2023-01-17T20:51:44.387Z,0.10
2023-01-17T20:54:14.944Z,0.10
2023-01-17T20:56:43.662Z,0.10
2023-01-17T20:59:14.522Z,0.10
2023-01-17T21:01:44.940Z,0.10
2023-01-17T21:04:14.728Z,0.00
2023-01-17T21:06:44.154Z,0.00
2023-01-17T21:09:13.983Z,-0.10
2023-01-17T21:11:42.295Z,0.00
2023-01-17T21:14:10.840Z,0.00
2023-01-17T21:16:39.360Z,0.00
2023-01-17T21:19:12.038Z,-0.10
2023-01-17T21:21:40.437Z,-0.10
2023-01-17T21:24:09.245Z,-0.10
2023-01-17T21:26:38.927Z,-0.10
2023-01-17T21:29:07.340Z,-0.10
2023-01-17T21:31:36.741Z,-0.10
2023-01-17T21:34:09.282Z,-0.10
2023-01-17T21:36:38.903Z,-0.20
2023-01-17T21:39:09.249Z,-0.20
2023-01-17T21:41:39.713Z,-0.20
2023-01-17T21:44:10.077Z,-0.20
2023-01-17T21:46:40.107Z,-0.20
2023-01-17T21:49:12.011Z,-0.20
2023-01-17T21:51:56.910Z,-0.30
2023-01-17T21:54:40.822Z,-0.30
2023-01-17T21:57:27.234Z,-0.30
2023-01-17T21:59:55.490Z,-0.30
2023-01-17T22:02:24.080Z,-0.30
2023-01-17T22:04:56.262Z,-0.30
2023-01-17T22:07:27.090Z,-0.40
2023-01-17T22:09:56.757Z,-0.40
2023-01-17T22:12:25.810Z,-0.40
2023-01-17T22:14:54.453Z,-0.50
2023-01-17T22:17:22.872Z,-0.50
2023-01-17T22:19:51.184Z,-0.40
2023-01-17T22:22:21.680Z,-0.40
2023-01-17T22:24:50.410Z,-0.40
2023-01-17T22:27:19.964Z,-0.40
2023-01-17T22:29:48.158Z,-0.50
2023-01-17T22:32:16.405Z,-0.50
2023-01-17T22:34:44.694Z,-0.40
2023-01-17T22:37:13.141Z,-0.40
2023-01-17T22:39:42.861Z,-0.40
2023-01-17T22:42:11.675Z,-0.50
2023-01-17T22:44:39.796Z,-0.60
2023-01-17T22:47:08.057Z,-0.60
2023-01-17T22:49:36.272Z,-0.60
2023-01-17T22:52:04.699Z,-0.70
2023-01-17T22:54:33.073Z,-0.70
2023-01-17T22:57:06.409Z,-0.80
2023-01-17T22:59:35.365Z,-0.80
2023-01-17T23:02:05.701Z,-0.70
2023-01-17T23:04:33.955Z,-0.80
2023-01-17T23:07:02.230Z,-0.80
2023-01-17T23:09:30.597Z,-0.90
2023-01-17T23:11:58.842Z,-0.80
2023-01-17T23:14:30.627Z,-0.80
2023-01-17T23:17:29.852Z,-0.80
2023-01-17T23:19:58.323Z,-0.80
2023-01-17T23:22:29.027Z,-0.80
2023-01-17T23:24:58.854Z,-0.80
2023-01-17T23:27:48.170Z,-0.90
2023-01-17T23:30:20.135Z,-0.80
2023-01-17T23:32:50.094Z,-0.90
2023-01-17T23:35:20.480Z,-1.00
2023-01-17T23:38:06.648Z,-1.00
2023-01-17T23:40:37.125Z,-1.10
2023-01-17T23:43:23.287Z,-1.10
2023-01-17T23:45:54.354Z,-1.10
2023-01-17T23:48:24.718Z,-1.10
2023-01-17T23:50:53.226Z,-1.10
2023-01-17T23:53:23.019Z,-1.10
2023-01-17T23:55:53.407Z,-1.10
2023-01-17T23:58:23.549Z,-1.30
